Time;durP1;ratioP1;P1;durP2;ratioP2;P2;SDS_P1;SDS_P2;PMS_P1;PMS_P2;Temp;Humidity;BMP_temperature;BMP_pressure;BME280_temperature;BME280_humidity;BME280_pressure;Samples;Min_cycle;Max_cycle;Signal;HPM_P1;HPM_P2
2021/04/12 00:01:09;;;;;;;5.07;2.38;;;4.30;99.90;;;;;;10317964;28;20064;-62
2021/04/12 00:06:16;;;;;;;4.00;2.53;;;4.30;99.90;;;;;;10361708;28;20058;-62
2021/04/12 00:11:18;;;;;;;;;;;4.30;99.90;;;;;;10362279;28;20147;-62
2021/04/12 00:16:26;;;;;;;3.42;1.77;;;4.30;99.90;;;;;;10362240;28;19971;-62
2021/04/12 00:21:48;;;;;;;3.40;1.75;;;4.40;99.90;;;;;;10367086;28;20484;-62
2021/04/12 00:27:13;;;;;;;2.92;2.05;;;4.30;99.90;;;;;;10365511;28;20115;-62
2021/04/12 00:32:28;;;;;;;4.80;2.05;;;4.30;99.90;;;;;;10357320;28;20045;-62
2021/04/12 00:37:51;;;;;;;2.83;1.70;;;4.30;99.90;;;;;;10366371;28;20056;-62
2021/04/12 00:43:17;;;;;;;3.90;2.33;;;4.30;99.90;;;;;;10308794;28;20103;-62
2021/04/12 00:48:41;;;;;;;4.35;2.10;;;4.30;99.90;;;;;;10367054;28;20554;-61
2021/04/12 00:54:07;;;;;;;5.40;2.10;;;4.20;99.90;;;;;;10366683;28;20069;-62
2021/04/12 00:59:37;;;;;;;2.65;1.90;;;4.30;99.90;;;;;;10382857;28;20507;-62
2021/04/12 01:04:56;;;;;;;4.57;1.58;;;4.30;99.90;;;;;;10280998;28;20112;-63
2021/04/12 01:10:32;;;;;;;2.17;1.77;;;4.30;99.90;;;;;;10308990;28;20045;-62
2021/04/12 01:15:55;;;;;;;3.38;1.75;;;4.30;99.90;;;;;;10320502;28;20069;-62
2021/04/12 01:21:34;;;;;;;5.28;1.70;;;4.20;99.90;;;;;;10292191;28;20056;-62
2021/04/12 01:27:00;;;;;;;2.97;1.50;;;4.20;99.90;;;;;;10288828;28;20573;-62
2021/04/12 01:32:14;;;;;;;3.28;1.60;;;4.20;99.90;;;;;;10304062;28;20065;-62
2021/04/12 01:37:53;;;;;;;3.30;1.83;;;4.20;99.90;;;;;;10368079;28;20049;-62
2021/04/12 01:43:10;;;;;;;3.72;1.50;;;4.20;99.90;;;;;;10317200;28;20112;-62
2021/04/12 01:48:25;;;;;;;4.35;1.40;;;4.20;99.90;;;;;;10366740;28;20099;-62
2021/04/12 01:53:53;;;;;;;3.00;1.40;;;4.20;99.90;;;;;;10316538;28;20436;-62
2021/04/12 01:59:22;;;;;;;4.10;1.30;;;4.20;99.90;;;;;;10314949;28;20112;-62
2021/04/12 02:04:32;;;;;;;2.50;1.00;;;4.10;99.90;;;;;;10245233;28;20045;-62
2021/04/12 02:09:51;;;;;;;4.97;1.23;;;4.10;99.90;;;;;;10367561;28;20107;-62
2021/04/12 02:15:30;;;;;;;4.40;1.05;;;4.10;99.90;;;;;;10292279;28;20065;-62
2021/04/12 02:20:43;;;;;;;1.10;0.80;;;4.10;99.90;;;;;;10317505;28;20061;-62
2021/04/12 02:26:09;;;;;;;1.42;0.60;;;4.10;99.90;;;;;;10365010;28;20069;-62
2021/04/12 02:31:30;;;;;;;1.40;0.90;;;4.10;99.90;;;;;;10365555;28;20041;-62
2021/04/12 02:37:05;;;;;;;2.75;1.00;;;4.10;99.90;;;;;;10315202;28;20065;-62
2021/04/12 02:42:22;;;;;;;2.67;0.93;;;4.10;99.90;;;;;;10314863;28;20056;-62
2021/04/12 02:47:44;;;;;;;1.70;1.02;;;4.10;99.90;;;;;;10317175;28;20089;-62
2021/04/12 02:53:06;;;;;;;2.45;1.00;;;4.10;99.90;;;;;;10362924;28;20057;-62
2021/04/12 02:58:46;;;;;;;3.70;1.08;;;4.10;99.90;;;;;;10362015;28;20053;-62
2021/04/12 03:03:53;;;;;;;4.88;0.95;;;4.10;99.90;;;;;;10308753;28;20072;-62
2021/04/12 03:09:42;;;;;;;4.57;1.40;;;4.10;99.90;;;;;;10363842;28;20058;-62
2021/04/12 03:15:14;;;;;;;3.15;1.10;;;4.00;99.90;;;;;;10302257;28;20044;-62
2021/04/12 03:20:30;;;;;;;5.20;1.15;;;4.00;99.90;;;;;;10362167;28;20053;-62
2021/04/12 03:25:59;;;;;;;2.13;1.35;;;4.00;99.90;;;;;;10364024;28;20053;-62
2021/04/12 03:31:03;;;;;;;3.20;1.45;;;4.00;99.90;;;;;;10309765;28;20069;-62
2021/04/12 03:36:46;;;;;;;4.53;1.35;;;3.90;99.90;;;;;;10362747;28;20030;-62
2021/04/12 03:42:02;;;;;;;3.85;1.83;;;3.90;99.90;;;;;;10288306;28;20045;-62
2021/04/12 03:47:27;;;;;;;3.50;1.15;;;3.90;99.90;;;;;;10364010;28;20053;-62
2021/04/12 03:52:55;;;;;;;1.98;0.98;;;3.90;99.90;;;;;;10310427;28;20169;-62
2021/04/12 03:58:17;;;;;;;5.22;1.15;;;3.90;99.90;;;;;;10321647;28;20049;-62
2021/04/12 04:03:36;;;;;;;1.63;1.00;;;3.80;99.90;;;;;;10373271;28;20077;-62
2021/04/12 04:08:54;;;;;;;3.40;1.02;;;3.80;99.90;;;;;;10374385;28;20104;-62
2021/04/12 04:14:28;;;;;;;2.40;0.98;;;3.80;99.90;;;;;;10338593;28;20603;-62
2021/04/12 04:19:36;;;;;;;3.88;1.55;;;3.80;99.90;;;;;;10301230;28;20041;-62
2021/04/12 04:25:01;;;;;;;4.13;1.15;;;3.70;99.90;;;;;;10376861;28;20060;-62
2021/04/12 04:30:46;;;;;;;4.07;1.20;;;3.70;99.90;;;;;;10292608;28;20057;-62
2021/04/12 04:35:47;;;;;;;3.08;1.10;;;3.70;99.90;;;;;;10305401;28;20179;-62
2021/04/12 04:40:57;;;;;;;3.70;1.35;;;3.60;99.90;;;;;;10371529;28;20400;-58
2021/04/12 04:46:16;;;;;;;8.60;2.08;;;3.70;99.90;;;;;;10370443;28;20476;-58
2021/04/12 04:51:41;;;;;;;1.67;1.17;;;3.70;99.90;;;;;;10363155;28;20068;-59
2021/04/12 04:56:59;;;;;;;2.30;1.30;;;3.70;99.90;;;;;;10368457;28;20058;-58
2021/04/12 05:02:42;;;;;;;3.72;1.15;;;3.70;99.90;;;;;;10368094;28;20415;-58
2021/04/12 05:07:58;;;;;;;2.70;1.38;;;3.70;99.90;;;;;;10319582;28;20115;-58
2021/04/12 05:13:12;;;;;;;3.33;1.65;;;3.60;99.90;;;;;;10365739;28;20057;-60
2021/04/12 05:18:38;;;;;;;5.38;2.10;;;3.60;99.90;;;;;;10367608;28;20057;-60
2021/04/12 05:24:13;;;;;;;4.57;2.65;;;3.60;99.90;;;;;;10367267;28;20088;-59
2021/04/12 05:29:48;;;;;;;5.93;2.60;;;3.70;99.90;;;;;;10315878;28;20049;-59
2021/04/12 05:35:06;;;;;;;5.85;2.72;;;3.70;99.90;;;;;;10370327;28;20053;-59
2021/04/12 05:40:44;;;;;;;7.43;3.47;;;3.70;99.90;;;;;;10366994;28;20128;-59
2021/04/12 05:46:04;;;;;;;4.97;2.90;;;3.80;99.90;;;;;;10315414;28;20137;-59
2021/04/12 05:51:33;;;;;;;12.57;4.25;;;3.90;99.90;;;;;;10366968;28;20050;-60
2021/04/12 05:56:39;;;;;;;;;;;3.90;99.90;;;;;;10322128;28;20108;-60
2021/04/12 06:02:09;;;;;;;5.63;2.30;;;4.00;99.90;;;;;;10369739;28;19975;-59
2021/04/12 06:07:32;;;;;;;5.75;2.83;;;4.10;99.90;;;;;;10287348;28;20172;-59
2021/04/12 06:12:55;;;;;;;7.93;3.35;;;4.20;99.90;;;;;;10313093;28;20461;-59
2021/04/12 06:18:25;;;;;;;4.32;3.10;;;4.20;99.90;;;;;;10318391;28;20058;-60
2021/04/12 06:23:34;;;;;;;8.05;2.20;;;4.20;99.90;;;;;;10255793;28;20103;-59
2021/04/12 06:28:38;;;;;;;3.85;2.17;;;4.30;99.90;;;;;;10361248;28;20188;-59
2021/04/12 06:33:54;;;;;;;7.88;2.55;;;4.30;99.90;;;;;;10367773;28;20049;-59
2021/04/12 06:39:14;;;;;;;2.88;2.20;;;4.30;99.90;;;;;;10317103;28;20065;-59
2021/04/12 06:44:42;;;;;;;4.15;2.50;;;4.30;99.90;;;;;;10361308;28;20095;-59
2021/04/12 06:50:15;;;;;;;7.25;2.03;;;4.30;99.90;;;;;;10367270;28;20085;-59
2021/04/12 06:55:19;;;;;;;8.15;1.90;;;4.40;99.90;;;;;;10365056;28;20064;-59
2021/04/12 07:00:42;;;;;;;5.47;2.08;;;4.60;99.90;;;;;;10365906;28;20064;-59
2021/04/12 07:06:14;;;;;;;3.80;2.03;;;4.80;99.90;;;;;;10364195;28;20072;-58
2021/04/12 07:11:50;;;;;;;5.35;1.52;;;4.80;99.90;;;;;;10366878;28;20049;-59
2021/04/12 07:17:14;;;;;;;4.00;1.17;;;4.80;99.90;;;;;;10331809;28;20041;-59
2021/04/12 07:22:24;;;;;;;2.95;0.90;;;4.80;99.90;;;;;;10365396;28;20184;-61
2021/04/12 07:27:55;;;;;;;2.58;0.50;;;4.90;99.90;;;;;;10364079;28;20500;-59
2021/04/12 07:33:20;;;;;;;2.50;0.85;;;4.90;99.90;;;;;;10312998;28;20057;-60
2021/04/12 07:39:16;;;;;;;1.55;0.60;;;5.10;99.90;;;;;;10358718;28;20056;-59
2021/04/12 07:45:06;;;;;;;0.80;0.50;;;5.20;99.80;;;;;;10285266;28;20049;-59
2021/04/12 07:50:42;;;;;;;3.65;0.57;;;5.20;98.80;;;;;;10311783;28;20041;-60
2021/04/12 07:55:51;;;;;;;2.45;0.60;;;5.00;99.90;;;;;;10319808;28;20450;-59
2021/04/12 08:01:22;;;;;;;3.22;0.98;;;5.20;96.80;;;;;;10371235;28;20053;-59
2021/04/12 08:07:17;;;;;;;1.42;0.60;;;5.50;97.30;;;;;;10295472;28;20088;-60
2021/04/12 08:12:53;;;;;;;1.15;0.70;;;5.40;95.10;;;;;;10272360;28;20103;-59
2021/04/12 08:18:33;;;;;;;1.42;0.93;;;5.50;93.20;;;;;;10329028;28;20037;-59
2021/04/12 08:24:02;;;;;;;1.75;0.88;;;5.40;94.20;;;;;;10318667;28;20057;-60
2021/04/12 08:29:27;;;;;;;2.40;1.10;;;5.80;93.00;;;;;;10324476;28;20456;-59
2021/04/12 08:34:52;;;;;;;3.22;1.05;;;5.90;92.30;;;;;;10321360;28;20119;-61
2021/04/12 08:40:33;;;;;;;4.07;0.95;;;6.30;93.20;;;;;;10319773;28;20049;-60
2021/04/12 08:46:04;;;;;;;2.88;0.65;;;5.90;91.70;;;;;;10296490;28;20050;-60
2021/04/12 08:51:43;;;;;;;5.00;1.33;;;5.80;90.50;;;;;;10321188;28;20086;-60
2021/04/12 08:57:08;;;;;;;3.13;0.90;;;5.70;91.60;;;;;;10318005;28;20103;-60
2021/04/12 09:02:40;;;;;;;3.67;1.13;;;5.80;89.50;;;;;;10383673;28;20060;-59
2021/04/12 09:08:00;;;;;;;2.10;1.10;;;5.60;86.20;;;;;;10291601;28;20057;-60
2021/04/12 09:13:36;;;;;;;15.82;2.15;;;5.70;87.80;;;;;;10316038;28;20048;-59
2021/04/12 09:19:10;;;;;;;2.72;1.30;;;6.10;86.30;;;;;;10313578;28;20412;-59
2021/04/12 09:24:36;;;;;;;3.40;1.55;;;6.90;85.90;;;;;;10321688;28;20050;-59
2021/04/12 09:30:11;;;;;;;2.72;1.38;;;6.40;78.80;;;;;;10318247;28;20120;-58
2021/04/12 09:35:50;;;;;;;5.75;1.20;;;6.70;81.40;;;;;;10315238;28;20483;-59
2021/04/12 09:41:29;;;;;;;3.20;0.82;;;6.50;78.00;;;;;;10275177;28;20076;-59
2021/04/12 09:46:52;;;;;;;3.83;0.98;;;6.50;78.00;;;;;;10317292;28;20088;-58
2021/04/12 09:52:24;;;;;;;5.07;1.38;;;7.30;76.90;;;;;;10319092;28;20049;-59
2021/04/12 09:58:03;;;;;;;2.38;0.50;;;7.40;72.60;;;;;;10321282;28;20137;-60
2021/04/12 10:03:31;;;;;;;2.22;0.45;;;7.10;71.00;;;;;;10318838;28;20072;-59
2021/04/12 10:08:39;;;;;;;3.88;0.85;;;6.90;69.30;;;;;;10277590;28;20507;-59
2021/04/12 10:13:46;;;;;;;;;;;6.80;72.20;;;;;;10367992;28;20107;-59
2021/04/12 10:18:58;;;;;;;2.28;0.95;;;6.70;71.10;;;;;;10365968;28;19929;-59
2021/04/12 10:24:28;;;;;;;4.65;1.30;;;7.30;71.20;;;;;;10366550;28;20073;-59
2021/04/12 10:29:36;;;;;;;3.03;1.52;;;7.30;71.80;;;;;;10306566;28;20441;-59
2021/04/12 10:34:47;;;;;;;1.70;1.40;;;7.10;71.10;;;;;;10361915;28;20120;-58
2021/04/12 10:40:02;;;;;;;6.18;1.60;;;7.10;74.50;;;;;;10359430;28;20049;-59
2021/04/12 10:45:18;;;;;;;2.42;1.35;;;6.90;73.10;;;;;;10365261;28;20057;-58
2021/04/12 10:50:31;;;;;;;3.63;0.87;;;6.80;72.00;;;;;;10364745;28;20155;-59
2021/04/12 10:55:42;;;;;;;2.53;0.60;;;6.50;72.30;;;;;;10364238;28;21226;-59
2021/04/12 11:01:18;;;;;;;1.92;0.50;;;7.20;67.60;;;;;;10361342;28;20373;-58
2021/04/12 11:06:40;;;;;;;1.48;0.80;;;7.20;64.50;;;;;;10368754;28;20049;-59
2021/04/12 11:11:50;;;;;;;3.65;0.73;;;7.30;66.80;;;;;;10362962;28;20123;-59
2021/04/12 11:17:29;;;;;;;1.00;0.40;;;7.40;66.70;;;;;;10362226;28;20395;-59
2021/04/12 11:22:57;;;;;;;3.35;0.60;;;7.60;66.50;;;;;;10279491;28;20519;-59
2021/04/12 11:28:12;;;;;;;1.77;0.50;;;7.60;67.70;;;;;;10314310;28;20054;-59
2021/04/12 11:33:56;;;;;;;2.38;0.60;;;7.30;69.20;;;;;;10359516;28;20223;-58
2021/04/12 11:39:03;;;;;;;1.05;0.50;;;7.50;68.20;;;;;;10310641;28;20050;-58
2021/04/12 11:44:14;;;;;;;1.33;0.63;;;8.20;67.40;;;;;;10362564;28;20107;-59
2021/04/12 11:49:15;;;;;;;2.13;0.50;;;8.90;61.80;;;;;;10362248;28;20045;-59
2021/04/12 11:54:31;;;;;;;1.52;0.65;;;9.20;59.20;;;;;;10361226;28;20049;-59
2021/04/12 11:59:51;;;;;;;3.40;0.55;;;9.30;58.70;;;;;;10366281;28;20045;-59
2021/04/12 12:04:56;;;;;;;1.00;0.57;;;9.80;57.00;;;;;;10358208;28;20049;-59
2021/04/12 12:10:09;;;;;;;0.80;0.40;;;9.90;54.80;;;;;;10362750;28;20150;-59
2021/04/12 12:15:43;;;;;;;0.82;0.60;;;9.40;55.60;;;;;;10361183;28;20479;-59
2021/04/12 12:20:49;;;;;;;2.17;0.80;;;8.50;57.60;;;;;;10315475;28;20053;-59
2021/04/12 12:25:53;;;;;;;1.17;0.60;;;8.50;60.00;;;;;;10361521;28;20650;-58
2021/04/12 12:31:10;;;;;;;2.65;0.50;;;8.60;60.80;;;;;;10368202;28;20081;-59
2021/04/12 12:36:29;;;;;;;1.55;0.70;;;9.40;61.40;;;;;;10384661;28;20123;-60
2021/04/12 12:41:36;;;;;;;1.17;0.50;;;9.80;62.40;;;;;;10319571;28;20042;-59
2021/04/12 12:46:40;;;;;;;5.15;0.80;;;9.50;59.30;;;;;;10369421;28;20053;-59
2021/04/12 12:51:51;;;;;;;2.70;0.57;;;9.40;61.40;;;;;;10373033;28;20050;-59
2021/04/12 12:57:08;;;;;;;2.70;0.68;;;9.10;61.70;;;;;;10365938;28;20045;-59
2021/04/12 13:02:20;;;;;;;1.73;0.50;;;8.80;65.80;;;;;;10369714;28;20073;-59
2021/04/12 13:07:22;;;;;;;1.58;0.70;;;8.40;70.40;;;;;;10363212;28;20045;-60
2021/04/12 13:12:41;;;;;;;5.22;1.08;;;7.70;79.00;;;;;;10366008;28;20119;-59
2021/04/12 13:17:43;;;;;;;1.65;0.50;;;7.40;85.60;;;;;;10370863;28;20052;-60
2021/04/12 13:22:50;;;;;;;1.42;0.68;;;7.10;89.10;;;;;;10365364;28;20049;-60
2021/04/12 13:27:56;;;;;;;3.92;0.80;;;7.60;89.10;;;;;;10364316;28;20498;-60
2021/04/12 13:33:03;;;;;;;0.85;0.45;;;7.90;84.60;;;;;;10383657;28;20084;-60
2021/04/12 13:38:19;;;;;;;1.77;0.90;;;8.00;85.30;;;;;;10368818;28;20531;-60
2021/04/12 13:43:29;;;;;;;1.25;0.50;;;8.20;86.50;;;;;;10367224;28;20188;-60
2021/04/12 13:48:32;;;;;;;2.53;0.60;;;8.30;83.30;;;;;;10371338;28;20459;-61
2021/04/12 13:53:52;;;;;;;0.55;0.20;;;8.30;79.80;;;;;;10365426;28;20146;-61
2021/04/12 13:59:16;;;;;;;1.05;0.40;;;9.20;71.30;;;;;;10277162;28;20206;-60
2021/04/12 14:04:24;;;;;;;1.00;0.60;;;8.80;75.30;;;;;;10365319;28;20045;-60
2021/04/12 14:09:25;;;;;;;1.40;0.40;;;10.20;68.70;;;;;;10369497;28;20089;-60
2021/04/12 14:14:51;;;;;;;1.85;0.30;;;8.70;69.00;;;;;;10370743;28;20474;-59
2021/04/12 14:20:01;;;;;;;0.38;0.25;;;8.80;72.70;;;;;;10359611;28;20085;-60
2021/04/12 14:25:28;;;;;;;1.48;0.20;;;8.40;72.00;;;;;;10363968;28;20507;-60
2021/04/12 14:30:31;;;;;;;0.28;0.20;;;8.70;71.00;;;;;;10319006;28;20073;-60
2021/04/12 14:35:41;;;;;;;0.68;0.20;;;11.50;59.80;;;;;;10371060;28;20519;-61
2021/04/12 14:40:52;;;;;;;1.52;0.20;;;12.30;55.60;;;;;;10365326;28;20115;-61
2021/04/12 14:46:14;;;;;;;1.02;0.30;;;12.70;52.40;;;;;;10365518;28;20045;-61
2021/04/12 14:51:29;;;;;;;0.30;0.20;;;11.50;54.60;;;;;;10363796;28;20471;-62
2021/04/12 14:56:39;;;;;;;0.20;0.20;;;9.90;59.00;;;;;;10363943;28;20542;-60
2021/04/12 15:01:45;;;;;;;1.77;0.30;;;9.60;59.00;;;;;;10365866;28;20583;-60
2021/04/12 15:07:04;;;;;;;0.35;0.30;;;9.70;58.80;;;;;;10370253;28;20049;-61
2021/04/12 15:12:17;;;;;;;0.57;0.20;;;9.50;65.10;;;;;;10364444;28;20060;-60
2021/04/12 15:17:29;;;;;;;0.75;0.30;;;10.40;62.10;;;;;;10362741;28;20498;-61
2021/04/12 15:22:41;;;;;;;0.35;0.20;;;10.90;61.20;;;;;;10365785;28;20049;-60
2021/04/12 15:27:43;;;;;;;1.33;0.50;;;9.80;65.50;;;;;;10367377;28;20108;-60
2021/04/12 15:32:58;;;;;;;1.20;0.20;;;9.40;65.30;;;;;;10359088;28;20068;-60
2021/04/12 15:38:06;;;;;;;0.32;0.20;;;10.00;63.50;;;;;;10362966;28;20049;-60
2021/04/12 15:43:22;;;;;;;1.08;0.20;;;10.00;60.40;;;;;;10365535;28;20053;-60
2021/04/12 15:48:28;;;;;;;1.83;0.47;;;9.40;62.70;;;;;;10359482;28;20053;-60
2021/04/12 15:53:32;;;;;;;1.02;0.30;;;8.90;64.90;;;;;;10363448;28;20373;-61
2021/04/12 15:58:56;;;;;;;0.10;0.10;;;8.10;67.90;;;;;;10363096;28;20053;-62
2021/04/12 16:04:00;;;;;;;0.75;0.30;;;6.70;78.10;;;;;;10320485;28;20108;-61
2021/04/12 16:09:12;;;;;;;0.30;0.20;;;6.60;81.50;;;;;;10376391;28;20041;-61
2021/04/12 16:14:41;;;;;;;0.70;0.40;;;6.30;85.90;;;;;;10373163;28;20038;-62
2021/04/12 16:19:45;;;;;;;0.50;0.30;;;6.40;88.20;;;;;;10298032;28;20049;-62
2021/04/12 16:25:15;;;;;;;2.60;0.50;;;6.30;90.30;;;;;;10363630;28;20058;-62
2021/04/12 16:30:25;;;;;;;0.68;0.20;;;6.10;92.10;;;;;;10360797;28;20471;-61
2021/04/12 16:35:30;;;;;;;0.40;0.22;;;5.80;87.90;;;;;;10372333;28;20396;-59
2021/04/12 16:40:42;;;;;;;0.50;0.30;;;6.10;81.10;;;;;;10373777;28;20060;-60
2021/04/12 16:45:57;;;;;;;0.50;0.40;;;6.30;80.90;;;;;;10369225;28;20801;-59
2021/04/12 16:51:25;;;;;;;0.43;0.40;;;6.50;79.40;;;;;;10321747;28;20146;-59
2021/04/12 16:56:32;;;;;;;1.80;0.43;;;6.70;78.10;;;;;;10277531;28;20058;-61
2021/04/12 17:01:46;;;;;;;1.08;0.30;;;6.70;77.70;;;;;;10374311;28;20053;-60
2021/04/12 17:07:24;;;;;;;1.77;0.57;;;6.80;78.60;;;;;;10364717;28;20223;-61
2021/04/12 17:12:28;;;;;;;;;;;6.90;77.70;;;;;;10314376;28;20148;-60
2021/04/12 17:17:57;;;;;;;0.93;0.32;;;7.40;77.50;;;;;;10367741;28;19933;-60
2021/04/12 17:23:04;;;;;;;0.40;0.35;;;7.60;76.20;;;;;;10320927;28;20049;-60
2021/04/12 17:28:15;;;;;;;;;;;7.50;75.60;;;;;;10370631;28;20115;-60
2021/04/12 17:33:25;;;;;;;1.67;0.40;;;7.60;75.50;;;;;;10358929;28;19929;-61
2021/04/12 17:38:33;;;;;;;1.80;0.43;;;7.50;75.40;;;;;;10368725;28;20051;-61
2021/04/12 17:43:56;;;;;;;0.95;0.40;;;7.20;73.70;;;;;;10364006;28;20101;-60
2021/04/12 17:49:08;;;;;;;1.35;0.60;;;7.10;75.60;;;;;;10321239;28;20108;-60
2021/04/12 17:54:18;;;;;;;0.65;0.40;;;6.70;77.60;;;;;;10365294;28;20481;-60
2021/04/12 17:59:43;;;;;;;1.33;0.50;;;6.50;79.90;;;;;;10366799;28;20465;-60
2021/04/12 18:04:49;;;;;;;1.83;0.98;;;6.30;81.30;;;;;;10374627;28;20050;-60
2021/04/12 18:10:06;;;;;;;1.25;0.63;;;6.20;82.40;;;;;;10375572;28;21062;-60
2021/04/12 18:15:25;;;;;;;1.20;0.60;;;6.10;82.90;;;;;;10369833;28;20104;-59
2021/04/12 18:20:40;;;;;;;1.10;0.50;;;5.90;83.30;;;;;;10329378;28;20110;-60
2021/04/12 18:25:56;;;;;;;1.67;0.90;;;5.90;83.80;;;;;;10367792;28;20151;-65
2021/04/12 18:31:05;;;;;;;2.10;0.65;;;5.70;84.50;;;;;;10319072;28;20041;-64
2021/04/12 18:36:16;;;;;;;0.80;0.60;;;5.50;85.70;;;;;;10369396;28;20045;-64
2021/04/12 18:41:26;;;;;;;1.00;0.60;;;5.40;87.20;;;;;;10363398;28;20045;-64
2021/04/12 18:46:47;;;;;;;1.23;0.68;;;5.30;88.00;;;;;;10361745;28;20049;-65
2021/04/12 18:52:01;;;;;;;2.03;0.80;;;5.20;88.50;;;;;;10366565;28;20131;-63
2021/04/12 18:57:30;;;;;;;0.70;0.63;;;5.10;89.80;;;;;;10366166;28;20115;-64
2021/04/12 19:03:02;;;;;;;1.95;0.82;;;5.00;90.50;;;;;;10293672;28;20104;-62
2021/04/12 19:08:18;;;;;;;2.95;1.00;;;4.90;90.50;;;;;;10298368;28;20133;-64
2021/04/12 19:13:32;;;;;;;;;;;4.80;90.90;;;;;;10366370;28;20480;-64
2021/04/12 19:18:47;;;;;;;1.05;0.75;;;4.70;91.70;;;;;;10371007;28;19932;-64
2021/04/12 19:24:25;;;;;;;1.05;0.88;;;4.50;92.60;;;;;;10363647;28;20088;-63
2021/04/12 19:29:39;;;;;;;2.88;1.15;;;4.40;94.00;;;;;;10289390;28;20584;-63
2021/04/12 19:34:55;;;;;;;5.93;2.30;;;4.30;94.80;;;;;;10370569;28;20116;-63
2021/04/12 19:40:08;;;;;;;1.90;1.13;;;4.20;95.60;;;;;;10326227;28;20604;-65
2021/04/12 19:45:15;;;;;;;1.77;1.00;;;4.10;96.90;;;;;;10367003;28;20060;-64
2021/04/12 19:50:34;;;;;;;2.65;1.75;;;3.90;98.40;;;;;;10362998;28;20440;-64
2021/04/12 19:55:41;;;;;;;2.72;1.23;;;3.90;99.80;;;;;;10369620;28;20045;-64
2021/04/12 20:00:52;;;;;;;1.37;1.23;;;3.70;99.90;;;;;;10367729;28;20049;-64
2021/04/12 20:06:03;;;;;;;3.90;1.48;;;3.70;99.90;;;;;;10361098;28;20546;-67
2021/04/12 20:11:33;;;;;;;2.72;1.17;;;3.60;99.90;;;;;;10368118;28;20057;-63
2021/04/12 20:17:11;;;;;;;3.03;1.67;;;3.50;99.90;;;;;;10321364;28;20488;-64
2021/04/12 20:22:44;;;;;;;1.98;1.13;;;3.30;99.90;;;;;;10314343;28;20059;-63
2021/04/12 20:27:59;;;;;;;1.92;1.30;;;3.20;99.90;;;;;;10313793;28;20054;-63
2021/04/12 20:33:35;;;;;;;1.17;1.00;;;3.10;99.90;;;;;;10364135;28;20057;-63
2021/04/12 20:39:09;;;;;;;4.03;1.48;;;3.00;99.90;;;;;;10304644;28;20046;-64
2021/04/12 20:44:32;;;;;;;4.80;1.95;;;2.90;99.90;;;;;;10361944;28;20096;-63
2021/04/12 20:49:45;;;;;;;6.68;2.63;;;2.80;99.90;;;;;;10319849;28;20049;-64
2021/04/12 20:54:53;;;;;;;3.42;2.75;;;2.70;99.90;;;;;;10367822;28;20061;-63
2021/04/12 21:00:07;;;;;;;6.65;2.50;;;2.70;99.90;;;;;;10370782;28;20135;-63
2021/04/12 21:05:09;;;;;;;2.22;2.03;;;2.60;99.90;;;;;;10369594;28;20096;-63
2021/04/12 21:17:12;;;;;;;4.00;2.75;;;2.40;99.90;;;;;;10502499;23;20044;-63
2021/04/12 21:27:41;;;;;;;4.15;2.35;;;2.30;99.90;;;;;;8369622;28;20133;-63
2021/04/12 21:32:47;;;;;;;;;;;2.30;99.90;;;;;;10371342;28;20092;-62
2021/04/12 21:38:05;;;;;;;4.68;2.30;;;2.30;99.90;;;;;;10372704;28;19928;-62
2021/04/12 21:43:17;;;;;;;4.13;2.15;;;2.20;99.90;;;;;;10375119;28;20049;-62
2021/04/12 21:48:56;;;;;;;4.00;2.03;;;2.10;99.90;;;;;;10371113;28;20041;-63
2021/04/12 21:54:25;;;;;;;3.83;2.15;;;2.10;99.90;;;;;;10295728;28;20041;-63
2021/04/12 21:59:33;;;;;;;2.28;1.90;;;2.00;99.90;;;;;;10325765;28;20130;-62
2021/04/12 22:04:44;;;;;;;5.35;2.60;;;1.90;99.90;;;;;;10363850;28;20179;-62
2021/04/12 22:10:09;;;;;;;4.60;3.88;;;1.90;99.90;;;;;;10369836;28;20099;-62
2021/04/12 22:15:40;;;;;;;4.55;2.55;;;1.80;99.90;;;;;;10373219;28;20060;-62
2021/04/12 22:21:02;;;;;;;3.33;2.50;;;1.70;99.90;;;;;;10264616;28;20080;-62
2021/04/12 22:26:09;;;;;;;6.65;3.42;;;1.60;99.90;;;;;;10272355;28;20116;-62
2021/04/12 22:41:37;;;;;;;6.32;2.97;;;1.40;99.90;;;;;;10331217;28;20046;-62
2021/04/12 22:46:58;;;;;;;2.60;2.40;;;1.30;99.90;;;;;;10327432;28;20085;-62
2021/04/12 22:52:00;;;;;;;5.88;3.38;;;1.20;99.90;;;;;;10258223;28;20045;-61
2021/04/12 23:02:09;;;;;;;10.27;3.80;;;1.10;99.90;;;;;;10325294;28;20054;-62
2021/04/12 23:07:39;;;;;;;10.27;3.88;;;1.10;99.90;;;;;;10324336;28;20064;-62
2021/04/12 23:12:40;;;;;;;16.27;6.07;;;1.00;99.90;;;;;;10279671;28;20100;-62
2021/04/12 23:17:42;;;;;;;8.75;4.28;;;0.90;99.90;;;;;;10329638;28;20497;-62
2021/04/12 23:22:58;;;;;;;7.30;3.53;;;0.90;99.90;;;;;;10327454;28;20046;-62
2021/04/12 23:28:03;;;;;;;8.23;4.10;;;0.90;99.90;;;;;;10245835;28;20097;-62
2021/04/12 23:33:17;;;;;;;5.72;3.08;;;0.80;99.90;;;;;;10326842;28;20872;-62
2021/04/12 23:38:19;;;;;;;4.53;2.55;;;0.80;99.90;;;;;;10321648;28;20050;-62
2021/04/12 23:43:27;;;;;;;4.40;3.08;;;0.80;99.90;;;;;;10325480;28;20077;-62
2021/04/12 23:48:34;;;;;;;7.70;3.67;;;0.70;99.90;;;;;;10323525;28;20057;-62
2021/04/12 23:53:35;;;;;;;4.43;2.70;;;0.70;99.90;;;;;;10328879;28;20116;-62
2021/04/12 23:58:42;;;;;;;5.57;3.30;;;0.70;99.90;;;;;;10324239;28;20112;-62
